createdAt,value
2019-02-19T00:01:33.215Z,0.11
2019-02-19T00:03:32.898Z,0.01
2019-02-19T00:05:33.117Z,-0.15
2019-02-19T00:07:33.132Z,-0.02
2019-02-19T00:09:33.138Z,-0.06
2019-02-19T00:11:33.357Z,-0.17
2019-02-19T00:13:32.954Z,-0.21
2019-02-19T00:15:32.966Z,-0.22
2019-02-19T00:17:33.183Z,-0.16
2019-02-19T00:19:32.989Z,-0.35
2019-02-19T00:21:33.620Z,-0.31
2019-02-19T00:23:32.971Z,-0.41
2019-02-19T00:25:33.036Z,-0.29
2019-02-19T00:27:33.041Z,-0.48
2019-02-19T00:29:33.211Z,-0.32
2019-02-19T00:31:33.058Z,-0.43
2019-02-19T00:33:33.078Z,-0.36
2019-02-19T00:35:32.874Z,-0.29
2019-02-19T00:37:33.091Z,-0.27
2019-02-19T00:39:32.898Z,-0.38
2019-02-19T00:41:33.123Z,-0.36
2019-02-19T00:43:32.927Z,-0.34
2019-02-19T00:45:33.150Z,-0.38
2019-02-19T00:47:32.992Z,-0.53
2019-02-19T00:49:33.069Z,-0.42
2019-02-19T00:51:32.974Z,-0.43
2019-02-19T00:53:33.069Z,-0.42
2019-02-19T00:55:33.204Z,-0.37
2019-02-19T00:57:33.216Z,-0.49
2019-02-19T00:59:32.994Z,-0.51
2019-02-19T01:01:32.970Z,-0.51
2019-02-19T01:03:33.151Z,-0.57
2019-02-19T01:05:33.259Z,-0.59
2019-02-19T01:07:33.266Z,-0.62
2019-02-19T01:09:33.285Z,-0.52
2019-02-19T01:11:32.880Z,-0.57
2019-02-19T01:13:32.897Z,-0.58
2019-02-19T01:15:33.113Z,-0.42
2019-02-19T01:17:33.124Z,-0.48
2019-02-19T01:19:32.933Z,-0.37
2019-02-19T01:21:33.080Z,-0.49
2019-02-19T01:23:33.035Z,-0.48
2019-02-19T01:25:33.109Z,-0.37
2019-02-19T01:27:33.044Z,-0.42
2019-02-19T01:29:32.990Z,-0.46
2019-02-19T01:31:33.148Z,-0.49
2019-02-19T01:33:32.950Z,-0.62
2019-02-19T01:35:33.002Z,-0.37
2019-02-19T01:37:33.030Z,-0.64
2019-02-19T01:39:33.230Z,-0.81
2019-02-19T01:41:33.192Z,-0.57
2019-02-19T01:43:33.068Z,-0.68
2019-02-19T01:45:34.312Z,-0.81
2019-02-19T01:47:33.298Z,-0.78
2019-02-19T01:49:33.101Z,-0.79
2019-02-19T01:51:33.122Z,-0.68
2019-02-19T01:53:33.081Z,-0.90
2019-02-19T01:55:32.887Z,-0.82
2019-02-19T01:57:32.950Z,-0.92
2019-02-19T01:59:33.569Z,-0.87
2019-02-19T02:01:32.974Z,-1.06
2019-02-19T02:03:32.975Z,-1.21
2019-02-19T02:05:33.206Z,-1.21
2019-02-19T02:07:33.129Z,-1.07
2019-02-19T02:09:33.019Z,-1.22
2019-02-19T02:11:33.080Z,-0.99
2019-02-19T02:13:33.191Z,-1.02
2019-02-19T02:15:33.058Z,-1.09
2019-02-19T02:17:33.048Z,-1.04
2019-02-19T02:19:33.034Z,-1.00
2019-02-19T02:21:33.095Z,-0.95
2019-02-19T02:23:33.073Z,-0.88
2019-02-19T02:25:33.227Z,-0.78
2019-02-19T02:27:33.120Z,-0.92
2019-02-19T02:29:33.077Z,-0.93
2019-02-19T02:31:33.144Z,-0.86
2019-02-19T02:33:33.155Z,-1.03
2019-02-19T02:35:32.965Z,-0.94
2019-02-19T02:37:32.918Z,-0.92
2019-02-19T02:39:32.984Z,-0.80
2019-02-19T02:41:33.607Z,-0.80
2019-02-19T02:43:33.018Z,-0.63
2019-02-19T02:45:32.963Z,-0.42
2019-02-19T02:47:33.185Z,-0.05
2019-02-19T02:49:33.245Z,0.14
2019-02-19T02:51:33.257Z,0.26
2019-02-19T02:53:33.197Z,0.29
2019-02-19T02:55:32.986Z,0.16
2019-02-19T02:57:33.091Z,0.21
2019-02-19T02:59:33.106Z,0.26
2019-02-19T03:01:33.314Z,0.17
2019-02-19T03:03:33.693Z,0.30
2019-02-19T03:05:32.905Z,0.40
2019-02-19T03:07:33.151Z,0.52
2019-02-19T03:09:33.356Z,0.71
2019-02-19T03:11:33.120Z,0.66
2019-02-19T03:13:33.364Z,0.77
2019-02-19T03:15:33.091Z,0.83
2019-02-19T03:17:32.997Z,1.01
2019-02-19T03:19:33.218Z,1.17
2019-02-19T03:21:33.145Z,1.57
2019-02-19T03:23:33.240Z,1.76
2019-02-19T03:25:32.994Z,2.01
2019-02-19T03:27:33.260Z,2.19
2019-02-19T03:29:33.071Z,2.25
2019-02-19T03:31:33.272Z,2.18
2019-02-19T03:33:33.309Z,2.38
2019-02-19T03:35:33.244Z,2.56
2019-02-19T03:37:33.518Z,2.55
2019-02-19T03:39:33.329Z,2.61
2019-02-19T03:41:33.080Z,2.65
2019-02-19T03:43:33.083Z,2.55
2019-02-19T03:45:32.962Z,2.66
2019-02-19T03:47:33.155Z,2.68
2019-02-19T03:49:33.362Z,2.70
2019-02-19T03:51:33.048Z,2.71
2019-02-19T03:53:33.022Z,2.70
2019-02-19T03:55:33.024Z,2.66
2019-02-19T03:57:33.437Z,2.65
2019-02-19T03:59:33.192Z,2.58
2019-02-19T04:01:33.215Z,2.59
2019-02-19T04:03:33.062Z,2.62
2019-02-19T04:05:33.070Z,2.69
2019-02-19T04:07:33.300Z,2.72
2019-02-19T04:09:33.298Z,2.71
2019-02-19T04:11:33.322Z,2.72
2019-02-19T04:13:33.326Z,2.78
2019-02-19T04:15:33.333Z,2.80
2019-02-19T04:17:33.342Z,2.86
2019-02-19T04:19:33.356Z,2.75
2019-02-19T04:21:33.163Z,2.73
2019-02-19T04:23:33.110Z,2.74
2019-02-19T04:25:33.080Z,2.78
2019-02-19T04:27:33.007Z,2.79
2019-02-19T04:29:33.418Z,2.68
2019-02-19T04:31:33.140Z,2.73
2019-02-19T04:33:33.243Z,2.46
2019-02-19T04:35:33.204Z,2.42
2019-02-19T04:37:33.262Z,2.28
2019-02-19T04:39:33.265Z,2.22
2019-02-19T04:41:33.280Z,2.09
2019-02-19T04:43:33.289Z,2.06
2019-02-19T04:45:33.305Z,1.99
2019-02-19T04:47:33.527Z,1.99
2019-02-19T04:49:33.127Z,1.93
2019-02-19T04:51:33.338Z,1.92
2019-02-19T04:53:33.325Z,2.01
2019-02-19T04:55:33.364Z,1.86
2019-02-19T04:57:33.376Z,1.95
2019-02-19T04:59:33.384Z,2.07
2019-02-19T05:01:32.973Z,1.96
2019-02-19T05:03:32.965Z,2.11
2019-02-19T05:05:33.420Z,2.33
2019-02-19T05:07:33.192Z,2.32
2019-02-19T05:09:33.226Z,2.25
2019-02-19T05:11:33.198Z,2.33
2019-02-19T05:13:33.204Z,2.21
2019-02-19T05:15:33.004Z,2.21
2019-02-19T05:17:33.280Z,2.27
2019-02-19T05:19:33.251Z,2.21
2019-02-19T05:21:33.099Z,2.29
2019-02-19T05:23:33.525Z,2.37
2019-02-19T05:25:33.271Z,2.36
2019-02-19T05:27:33.341Z,2.49
2019-02-19T05:29:33.288Z,2.43
2019-02-19T05:31:33.281Z,2.55
2019-02-19T05:33:33.557Z,2.40
2019-02-19T05:35:33.600Z,2.59
2019-02-19T05:37:33.400Z,2.56
2019-02-19T05:39:33.205Z,2.51
2019-02-19T05:41:33.401Z,2.51
2019-02-19T05:43:33.200Z,2.62
2019-02-19T05:45:33.247Z,2.57
2019-02-19T05:47:33.257Z,2.61
2019-02-19T05:49:33.001Z,2.65
2019-02-19T05:51:33.065Z,2.50
2019-02-19T05:53:33.292Z,2.44
2019-02-19T05:55:33.306Z,2.44
2019-02-19T05:57:33.092Z,2.53
2019-02-19T05:59:33.527Z,2.47
2019-02-19T06:01:33.295Z,2.45
2019-02-19T06:03:33.349Z,2.49
2019-02-19T06:05:33.155Z,2.29
2019-02-19T06:07:33.159Z,2.39
2019-02-19T06:09:33.587Z,2.36
2019-02-19T06:11:33.391Z,2.34
2019-02-19T06:13:33.122Z,2.37
2019-02-19T06:15:33.202Z,2.39
2019-02-19T06:17:33.419Z,2.28
2019-02-19T06:19:33.389Z,2.31
2019-02-19T06:21:33.035Z,2.34
2019-02-19T06:23:33.254Z,2.26
2019-02-19T06:25:33.217Z,2.29
2019-02-19T06:27:33.273Z,2.21
2019-02-19T06:29:33.224Z,2.28
2019-02-19T06:31:33.034Z,2.23
2019-02-19T06:33:33.269Z,2.28
2019-02-19T06:35:33.332Z,2.23
2019-02-19T06:37:33.332Z,2.27
2019-02-19T06:39:33.347Z,2.38
2019-02-19T06:41:33.153Z,2.27
2019-02-19T06:43:33.298Z,2.39
2019-02-19T06:45:33.587Z,2.46
2019-02-19T06:47:33.598Z,2.49
2019-02-19T06:49:33.331Z,2.56
2019-02-19T06:51:33.374Z,2.53
2019-02-19T06:53:33.194Z,2.58
2019-02-19T06:55:33.038Z,2.54
2019-02-19T06:57:33.046Z,2.61
2019-02-19T06:59:33.462Z,2.70
2019-02-19T07:01:33.073Z,2.74
2019-02-19T07:03:33.232Z,2.76
2019-02-19T07:05:33.500Z,2.78
2019-02-19T07:07:33.307Z,2.78
2019-02-19T07:09:33.050Z,2.70
2019-02-19T07:11:33.307Z,2.86
2019-02-19T07:13:33.131Z,2.85
2019-02-19T07:15:33.961Z,2.95
2019-02-19T07:17:33.349Z,2.90
2019-02-19T07:19:33.340Z,2.92
2019-02-19T07:21:32.989Z,2.88
2019-02-19T07:23:33.369Z,2.93
2019-02-19T07:25:34.550Z,2.98
2019-02-19T07:27:32.966Z,3.01
2019-02-19T07:29:34.662Z,2.94
2019-02-19T07:31:33.033Z,3.01
2019-02-19T07:33:33.200Z,3.08
2019-02-19T07:35:36.086Z,3.11
2019-02-19T07:37:33.274Z,2.99
2019-02-19T07:39:33.236Z,2.99
2019-02-19T07:41:33.917Z,3.17
2019-02-19T07:43:33.312Z,3.04
2019-02-19T07:45:33.286Z,3.18
2019-02-19T07:47:33.335Z,3.13
2019-02-19T07:49:33.347Z,3.02
2019-02-19T07:51:33.159Z,3.05
2019-02-19T07:53:33.343Z,3.17
2019-02-19T07:55:33.341Z,3.12
2019-02-19T07:57:33.356Z,3.08
2019-02-19T07:59:33.402Z,3.08
2019-02-19T08:01:32.963Z,3.10
2019-02-19T08:03:33.012Z,3.00
2019-02-19T08:05:33.227Z,3.11
2019-02-19T08:07:33.279Z,3.06
2019-02-19T08:09:32.998Z,2.99
2019-02-19T08:11:33.675Z,3.04
2019-02-19T08:13:33.042Z,3.04
2019-02-19T08:15:33.295Z,3.07
2019-02-19T08:17:33.717Z,3.07
2019-02-19T08:19:33.051Z,2.98
2019-02-19T08:21:33.494Z,3.00
2019-02-19T08:23:33.337Z,3.02
2019-02-19T08:25:33.148Z,3.10
2019-02-19T08:27:33.155Z,3.18
2019-02-19T08:29:33.377Z,3.15
2019-02-19T08:31:33.091Z,3.17
2019-02-19T08:33:33.884Z,3.24
2019-02-19T08:35:33.199Z,3.28
2019-02-19T08:37:33.379Z,3.29
2019-02-19T08:39:33.420Z,3.39
2019-02-19T08:41:33.640Z,3.34
2019-02-19T08:43:33.451Z,3.50
2019-02-19T08:45:33.212Z,3.40
2019-02-19T08:47:41.997Z,3.44
2019-02-19T08:49:33.280Z,3.46
2019-02-19T08:51:33.501Z,3.51
2019-02-19T08:53:33.278Z,3.53
2019-02-19T08:55:34.815Z,3.55
2019-02-19T08:57:33.327Z,3.60
2019-02-19T08:59:33.330Z,3.60
2019-02-19T09:01:33.101Z,3.58
2019-02-19T09:03:33.358Z,3.62
2019-02-19T09:05:33.373Z,3.73
2019-02-19T09:07:33.583Z,3.69
2019-02-19T09:09:33.394Z,3.61
2019-02-19T09:11:33.561Z,3.68
2019-02-19T09:13:33.159Z,3.65
2019-02-19T09:15:33.432Z,3.62
2019-02-19T09:17:33.646Z,3.64
2019-02-19T09:19:33.464Z,3.64
2019-02-19T09:21:33.278Z,3.76
2019-02-19T09:23:33.695Z,3.68
2019-02-19T09:25:33.249Z,3.75
2019-02-19T09:27:33.254Z,3.75
2019-02-19T09:29:33.305Z,3.64
2019-02-19T09:31:33.617Z,3.82
2019-02-19T09:33:33.739Z,3.73
2019-02-19T09:35:33.275Z,3.85
2019-02-19T09:37:33.085Z,3.85
2019-02-19T09:39:33.172Z,3.91
2019-02-19T09:41:33.367Z,3.98
2019-02-19T09:43:35.564Z,3.97
2019-02-19T09:45:33.389Z,4.08
2019-02-19T09:47:33.169Z,3.97
2019-02-19T09:49:33.223Z,3.87
2019-02-19T09:51:33.152Z,4.05
2019-02-19T09:53:33.417Z,4.00
2019-02-19T09:55:33.250Z,4.01
2019-02-19T09:57:33.247Z,3.99
2019-02-19T09:59:33.261Z,4.05
2019-02-19T10:01:33.439Z,4.08
2019-02-19T10:03:33.299Z,4.06
2019-02-19T10:05:33.473Z,3.98
2019-02-19T10:07:33.519Z,3.97
2019-02-19T10:09:33.355Z,4.01
2019-02-19T10:11:33.518Z,3.97
2019-02-19T10:13:33.565Z,4.10
2019-02-19T10:15:33.371Z,4.21
2019-02-19T10:17:34.973Z,4.15
2019-02-19T10:19:33.494Z,4.28
2019-02-19T10:21:33.195Z,4.35
2019-02-19T10:23:33.638Z,4.53
2019-02-19T10:25:33.221Z,4.70
2019-02-19T10:27:33.163Z,4.92
2019-02-19T10:29:33.652Z,5.06
2019-02-19T10:31:33.410Z,5.43
2019-02-19T10:33:33.216Z,5.47
2019-02-19T10:35:33.261Z,5.53
2019-02-19T10:37:33.423Z,5.59
2019-02-19T10:39:33.499Z,5.61
2019-02-19T10:41:33.717Z,5.67
2019-02-19T10:43:33.498Z,5.60
2019-02-19T10:45:33.304Z,5.58
2019-02-19T10:47:33.555Z,5.64
2019-02-19T10:49:33.565Z,5.87
2019-02-19T10:51:33.577Z,5.89
2019-02-19T10:53:33.794Z,6.12
2019-02-19T10:55:33.592Z,6.32
2019-02-19T10:57:33.620Z,6.31
2019-02-19T10:59:33.581Z,6.35
2019-02-19T11:01:33.917Z,6.45
2019-02-19T11:03:33.416Z,6.56
2019-02-19T11:05:34.076Z,6.53
2019-02-19T11:07:33.264Z,6.62
2019-02-19T11:09:33.267Z,6.56
2019-02-19T11:11:33.493Z,6.50
2019-02-19T11:13:33.295Z,6.64
2019-02-19T11:15:33.467Z,6.68
2019-02-19T11:17:33.479Z,6.72
2019-02-19T11:19:33.477Z,6.71
2019-02-19T11:21:33.333Z,6.66
2019-02-19T11:23:33.819Z,6.72
2019-02-19T11:25:33.328Z,6.76
2019-02-19T11:27:33.572Z,6.85
2019-02-19T11:29:33.812Z,6.79
2019-02-19T11:31:33.354Z,6.93
2019-02-19T11:33:33.407Z,6.85
2019-02-19T11:35:33.632Z,7.24
2019-02-19T11:37:33.426Z,7.89
2019-02-19T11:39:33.647Z,8.30
2019-02-19T11:41:33.872Z,8.35
2019-02-19T11:43:33.874Z,8.28
2019-02-19T11:45:33.273Z,8.38
2019-02-19T11:47:33.669Z,8.23
2019-02-19T11:49:33.509Z,8.05
2019-02-19T11:51:33.919Z,7.94
2019-02-19T11:53:33.525Z,7.92
2019-02-19T11:55:33.499Z,8.01
2019-02-19T11:57:33.618Z,7.93
2019-02-19T11:59:33.537Z,7.92
2019-02-19T12:01:33.565Z,7.89
2019-02-19T12:03:33.379Z,7.78
2019-02-19T12:05:33.417Z,7.59
2019-02-19T12:07:33.547Z,7.50
2019-02-19T12:09:33.331Z,7.45
2019-02-19T12:11:33.387Z,7.28
2019-02-19T12:13:33.462Z,7.25
2019-02-19T12:15:35.471Z,7.20
2019-02-19T12:17:33.405Z,7.24
2019-02-19T12:19:33.681Z,7.26
2019-02-19T12:21:33.421Z,7.40
2019-02-19T12:23:33.455Z,7.47
2019-02-19T12:25:33.249Z,7.49
2019-02-19T12:27:33.477Z,7.46
2019-02-19T12:29:33.937Z,7.55
2019-02-19T12:31:33.276Z,7.58
2019-02-19T12:33:33.518Z,7.62
2019-02-19T12:35:33.767Z,7.87
2019-02-19T12:37:33.574Z,8.07
2019-02-19T12:39:33.587Z,8.11
2019-02-19T12:41:33.800Z,7.97
2019-02-19T12:43:33.579Z,8.00
2019-02-19T12:45:33.620Z,8.15
2019-02-19T12:47:33.433Z,8.27
2019-02-19T12:49:33.443Z,8.39
2019-02-19T12:51:33.652Z,8.40
2019-02-19T12:53:33.670Z,8.32
2019-02-19T12:55:33.654Z,8.44
2019-02-19T12:57:33.712Z,8.43
2019-02-19T12:59:33.701Z,8.53
2019-02-19T13:01:33.508Z,8.46
2019-02-19T13:03:33.520Z,8.41
2019-02-19T13:05:36.177Z,8.63
2019-02-19T13:07:33.541Z,8.79
2019-02-19T13:09:33.559Z,8.88
2019-02-19T13:11:33.603Z,9.03
2019-02-19T13:13:33.374Z,9.21
2019-02-19T13:15:33.387Z,9.32
2019-02-19T13:17:33.599Z,9.51
2019-02-19T13:19:33.688Z,9.67
2019-02-19T13:21:33.718Z,9.61
2019-02-19T13:23:33.714Z,9.56
2019-02-19T13:25:33.568Z,9.54
2019-02-19T13:27:33.610Z,9.54
2019-02-19T13:29:33.443Z,9.51
2019-02-19T13:31:33.756Z,9.73
2019-02-19T13:33:33.742Z,10.05
2019-02-19T13:35:33.411Z,10.37
2019-02-19T13:37:33.585Z,10.62
2019-02-19T13:39:33.601Z,11.08
2019-02-19T13:41:33.527Z,10.95
2019-02-19T13:43:33.421Z,10.82
2019-02-19T13:45:33.383Z,10.96
2019-02-19T13:47:33.733Z,11.09
2019-02-19T13:49:33.967Z,11.16
2019-02-19T13:51:33.775Z,11.14
2019-02-19T13:53:33.763Z,11.35
2019-02-19T13:55:33.589Z,11.45
2019-02-19T13:57:33.606Z,11.68
2019-02-19T13:59:33.825Z,11.87
2019-02-19T14:01:33.733Z,11.98
2019-02-19T14:03:33.746Z,11.95
2019-02-19T14:05:33.959Z,11.98
2019-02-19T14:07:33.970Z,11.88
2019-02-19T14:09:33.568Z,11.85
2019-02-19T14:11:33.698Z,11.92
2019-02-19T14:13:33.908Z,12.00
2019-02-19T14:15:33.501Z,11.92
2019-02-19T14:17:33.519Z,11.61
2019-02-19T14:19:33.499Z,11.62
2019-02-19T14:21:33.748Z,11.53
2019-02-19T14:23:33.961Z,11.28
2019-02-19T14:25:33.689Z,10.95
2019-02-19T14:27:33.774Z,10.69
2019-02-19T14:29:33.510Z,10.67
2019-02-19T14:31:33.597Z,10.68
2019-02-19T14:33:33.505Z,10.88
2019-02-19T14:35:33.488Z,11.09
2019-02-19T14:37:33.739Z,11.43
2019-02-19T14:39:33.526Z,11.30
2019-02-19T14:41:33.754Z,11.03
2019-02-19T14:43:33.494Z,10.90
2019-02-19T14:45:33.780Z,10.66
2019-02-19T14:47:33.585Z,10.49
2019-02-19T14:49:37.300Z,10.83
2019-02-19T14:51:33.817Z,11.08
2019-02-19T14:53:33.622Z,11.29
2019-02-19T14:55:33.817Z,11.49
2019-02-19T14:57:33.847Z,11.73
2019-02-19T14:59:33.522Z,11.77
2019-02-19T15:01:33.533Z,11.84
2019-02-19T15:03:33.796Z,11.70
2019-02-19T15:05:33.550Z,11.73
2019-02-19T15:07:34.019Z,11.74
2019-02-19T15:09:33.616Z,11.80
2019-02-19T15:11:33.830Z,11.87
2019-02-19T15:13:33.852Z,11.83
2019-02-19T15:15:34.257Z,11.75
2019-02-19T15:17:33.776Z,11.71
2019-02-19T15:19:39.171Z,11.65
2019-02-19T15:21:33.787Z,11.76
2019-02-19T15:23:33.690Z,11.57
2019-02-19T15:25:33.924Z,11.65
2019-02-19T15:27:33.511Z,11.58
2019-02-19T15:29:33.673Z,11.62
2019-02-19T15:31:33.742Z,11.66
2019-02-19T15:33:33.855Z,11.57
2019-02-19T15:35:33.875Z,11.29
2019-02-19T15:37:33.888Z,11.33
2019-02-19T15:39:33.587Z,11.36
2019-02-19T15:41:33.698Z,11.33
2019-02-19T15:43:33.694Z,11.20
2019-02-19T15:45:33.725Z,11.18
2019-02-19T15:47:33.614Z,11.07
2019-02-19T15:49:33.898Z,10.74
2019-02-19T15:51:33.958Z,10.44
2019-02-19T15:53:33.767Z,10.28
2019-02-19T15:55:33.773Z,10.06
2019-02-19T15:57:33.940Z,9.84
2019-02-19T15:59:33.912Z,9.75
2019-02-19T16:01:34.083Z,9.64
2019-02-19T16:03:33.725Z,9.56
2019-02-19T16:05:33.739Z,9.50
2019-02-19T16:07:33.743Z,9.43
2019-02-19T16:09:33.770Z,9.40
2019-02-19T16:11:33.765Z,9.36
2019-02-19T16:13:35.289Z,9.11
2019-02-19T16:15:33.897Z,9.23
2019-02-19T16:17:33.905Z,9.12
2019-02-19T16:19:33.896Z,9.12
2019-02-19T16:21:33.928Z,8.93
2019-02-19T16:23:33.949Z,9.07
2019-02-19T16:25:33.748Z,8.92
2019-02-19T16:27:33.741Z,8.97
2019-02-19T16:29:33.778Z,8.63
2019-02-19T16:31:33.917Z,8.62
2019-02-19T16:33:33.794Z,8.59
2019-02-19T16:35:33.688Z,8.62
2019-02-19T16:37:33.681Z,8.38
2019-02-19T16:39:33.708Z,8.37
2019-02-19T16:41:34.562Z,8.23
2019-02-19T16:43:34.264Z,8.17
2019-02-19T16:45:33.949Z,7.99
2019-02-19T16:47:34.057Z,7.84
2019-02-19T16:49:33.805Z,7.73
2019-02-19T16:51:33.692Z,7.60
2019-02-19T16:53:33.919Z,7.46
2019-02-19T16:55:33.928Z,7.41
2019-02-19T16:57:33.678Z,7.28
2019-02-19T16:59:33.844Z,7.06
2019-02-19T17:01:33.958Z,6.88
2019-02-19T17:03:34.293Z,6.76
2019-02-19T17:05:34.189Z,6.75
2019-02-19T17:07:34.326Z,6.62
2019-02-19T17:09:33.768Z,6.58
2019-02-19T17:11:34.227Z,6.46
2019-02-19T17:13:33.904Z,6.36
2019-02-19T17:15:33.945Z,6.28
2019-02-19T17:17:33.742Z,6.31
2019-02-19T17:19:33.761Z,6.05
2019-02-19T17:21:33.774Z,5.97
2019-02-19T17:23:33.986Z,5.90
2019-02-19T17:25:33.924Z,5.73
2019-02-19T17:27:33.950Z,5.73
2019-02-19T17:29:33.811Z,5.61
2019-02-19T17:31:34.052Z,5.49
2019-02-19T17:33:33.977Z,5.41
2019-02-19T17:35:34.369Z,5.24
2019-02-19T17:37:33.948Z,5.21
2019-02-19T17:39:34.182Z,5.05
2019-02-19T17:41:34.398Z,4.94
2019-02-19T17:43:33.992Z,4.75
2019-02-19T17:45:33.928Z,4.84
2019-02-19T17:47:33.838Z,4.66
2019-02-19T17:49:34.137Z,4.58
2019-02-19T17:51:34.357Z,4.58
2019-02-19T17:53:34.411Z,4.40
2019-02-19T17:55:34.063Z,4.43
2019-02-19T17:57:33.869Z,4.33
2019-02-19T17:59:34.116Z,4.25
2019-02-19T18:01:34.616Z,4.22
2019-02-19T18:03:34.424Z,4.09
2019-02-19T18:05:33.684Z,3.93
2019-02-19T18:07:34.445Z,3.86
2019-02-19T18:09:34.253Z,3.69
2019-02-19T18:11:34.264Z,3.64
2019-02-19T18:13:34.276Z,3.54
2019-02-19T18:15:34.179Z,3.63
2019-02-19T18:17:34.081Z,3.47
2019-02-19T18:19:34.053Z,3.43
2019-02-19T18:21:34.169Z,3.42
2019-02-19T18:23:34.233Z,3.34
2019-02-19T18:25:34.452Z,3.32
2019-02-19T18:27:34.463Z,3.10
2019-02-19T18:29:34.590Z,3.06
2019-02-19T18:31:34.280Z,2.93
2019-02-19T18:33:34.035Z,2.85
2019-02-19T18:35:34.078Z,2.71
2019-02-19T18:37:34.307Z,2.68
2019-02-19T18:39:34.214Z,2.57
2019-02-19T18:41:34.116Z,2.50
2019-02-19T18:43:34.300Z,2.53
2019-02-19T18:45:34.148Z,2.40
2019-02-19T18:47:36.833Z,2.34
2019-02-19T18:49:34.300Z,2.43
2019-02-19T18:51:34.192Z,2.41
2019-02-19T18:53:34.170Z,2.23
2019-02-19T18:55:34.348Z,2.31
2019-02-19T18:57:34.427Z,2.15
2019-02-19T18:59:34.414Z,2.21
2019-02-19T19:01:34.153Z,2.08
2019-02-19T19:03:34.466Z,2.01
2019-02-19T19:05:34.473Z,1.96
2019-02-19T19:07:34.380Z,1.88
2019-02-19T19:09:34.191Z,1.91
2019-02-19T19:11:34.202Z,1.96
2019-02-19T19:13:34.429Z,1.89
2019-02-19T19:15:34.214Z,1.89
2019-02-19T19:17:35.229Z,1.86
2019-02-19T19:19:34.244Z,1.93
2019-02-19T19:21:35.454Z,1.93
2019-02-19T19:23:34.484Z,1.93
2019-02-19T19:25:34.488Z,1.88
2019-02-19T19:27:34.254Z,1.85
2019-02-19T19:29:34.202Z,1.99
2019-02-19T19:31:34.190Z,1.95
2019-02-19T19:33:34.428Z,1.91
2019-02-19T19:35:34.211Z,1.89
2019-02-19T19:37:34.090Z,1.88
2019-02-19T19:39:34.126Z,1.82
2019-02-19T19:43:34.384Z,1.89
2019-02-19T19:45:34.315Z,1.85
2019-02-19T19:47:34.513Z,1.84
2019-02-19T19:49:34.525Z,1.87
2019-02-19T19:51:34.436Z,1.79
2019-02-19T19:53:34.258Z,1.75
2019-02-19T19:55:34.479Z,1.73
2019-02-19T19:57:34.332Z,1.71
2019-02-19T19:59:34.586Z,1.77
2019-02-19T20:01:34.503Z,1.77
2019-02-19T20:03:34.401Z,1.69
2019-02-19T20:05:34.176Z,1.49
2019-02-19T20:07:34.531Z,1.62
2019-02-19T20:09:34.229Z,1.55
2019-02-19T20:11:34.455Z,1.45
2019-02-19T20:13:34.459Z,1.50
2019-02-19T20:15:34.368Z,1.37
2019-02-19T20:17:34.789Z,1.45
2019-02-19T20:19:33.792Z,1.42
2019-02-19T20:21:34.278Z,1.47
2019-02-19T20:23:34.338Z,1.43
2019-02-19T20:25:34.459Z,1.58
2019-02-19T20:27:34.236Z,1.35
2019-02-19T20:29:34.395Z,1.31
2019-02-19T20:31:34.667Z,1.27
2019-02-19T20:33:34.273Z,1.31
2019-02-19T20:35:34.252Z,1.18
2019-02-19T20:37:34.493Z,1.17
2019-02-19T20:39:34.503Z,1.15
2019-02-19T20:41:34.939Z,1.08
2019-02-19T20:43:34.072Z,1.00
2019-02-19T20:45:34.273Z,0.93
2019-02-19T20:47:34.552Z,1.02
2019-02-19T20:49:33.954Z,0.94
2019-02-19T20:51:36.430Z,0.92
2019-02-19T20:53:34.089Z,0.86
2019-02-19T20:55:36.877Z,0.85
2019-02-19T20:57:33.814Z,0.80
2019-02-19T20:59:34.082Z,0.59
2019-02-19T21:01:34.087Z,0.62
2019-02-19T21:03:33.933Z,0.60
2019-02-19T21:05:34.010Z,0.63
2019-02-19T21:07:34.259Z,0.57
2019-02-19T21:09:43.111Z,0.50
2019-02-19T21:11:34.135Z,0.45
2019-02-19T21:13:34.195Z,0.62
2019-02-19T21:15:34.073Z,0.49
2019-02-19T21:17:34.626Z,0.28
2019-02-19T21:19:34.223Z,0.24
2019-02-19T21:21:33.828Z,0.17
2019-02-19T21:23:33.991Z,0.21
2019-02-19T21:25:33.978Z,0.34
2019-02-19T21:27:34.068Z,0.16
2019-02-19T21:29:34.084Z,0.14
2019-02-19T21:31:34.021Z,0.10
2019-02-19T21:33:33.901Z,0.28
2019-02-19T21:35:34.170Z,0.15
2019-02-19T21:37:34.127Z,0.15
2019-02-19T21:39:34.345Z,0.26
2019-02-19T21:41:33.948Z,0.21
2019-02-19T21:43:33.960Z,0.17
2019-02-19T21:45:33.872Z,0.23
2019-02-19T21:47:34.181Z,0.15
2019-02-19T21:49:34.201Z,0.03
2019-02-19T21:51:33.966Z,0.08
2019-02-19T21:53:34.018Z,0.04
2019-02-19T21:55:34.171Z,0.03
2019-02-19T21:57:34.250Z,-0.15
2019-02-19T21:59:34.252Z,-0.12
2019-02-19T22:01:34.235Z,-0.24
2019-02-19T22:03:34.281Z,-0.30
2019-02-19T22:05:33.878Z,-0.37
2019-02-19T22:07:34.091Z,-0.31
2019-02-19T22:09:33.904Z,-0.40
2019-02-19T22:11:34.052Z,-0.27
2019-02-19T22:13:34.301Z,-0.41
2019-02-19T22:15:34.149Z,-0.33
2019-02-19T22:17:33.979Z,-0.41
2019-02-19T22:19:33.956Z,-0.37
2019-02-19T22:21:34.182Z,-0.28
2019-02-19T22:23:34.115Z,-0.30
2019-02-19T22:25:33.926Z,-0.37
2019-02-19T22:27:33.848Z,-0.26
2019-02-19T22:29:34.323Z,-0.36
2019-02-19T22:31:34.079Z,-0.29
2019-02-19T22:33:34.386Z,-0.26
2019-02-19T22:35:34.122Z,-0.42
2019-02-19T22:37:34.171Z,-0.47
2019-02-19T22:39:34.179Z,-0.48
2019-02-19T22:41:34.573Z,-0.46
2019-02-19T22:43:34.289Z,-0.49
2019-02-19T22:45:34.219Z,-0.55
2019-02-19T22:47:33.886Z,-0.58
2019-02-19T22:49:34.147Z,-0.53
2019-02-19T22:51:33.943Z,-0.64
2019-02-19T22:53:34.157Z,-0.58
2019-02-19T22:55:34.113Z,-0.51
2019-02-19T22:57:33.982Z,-0.68
2019-02-19T22:59:34.193Z,-0.64
2019-02-19T23:01:33.993Z,-0.62
2019-02-19T23:03:34.004Z,-0.52
2019-02-19T23:05:34.433Z,-0.69
2019-02-19T23:07:34.174Z,-0.64
2019-02-19T23:09:33.991Z,-0.67
2019-02-19T23:11:34.052Z,-0.70
2019-02-19T23:13:34.194Z,-0.82
2019-02-19T23:15:34.394Z,-0.77
2019-02-19T23:17:34.117Z,-0.89
2019-02-19T23:19:34.002Z,-0.89
2019-02-19T23:21:34.222Z,-0.94
2019-02-19T23:23:34.022Z,-1.02
2019-02-19T23:25:34.281Z,-1.04
2019-02-19T23:27:34.065Z,-1.17
2019-02-19T23:29:34.156Z,-1.00
2019-02-19T23:31:34.080Z,-1.09
2019-02-19T23:33:33.989Z,-1.16
2019-02-19T23:35:33.962Z,-1.12
2019-02-19T23:37:34.020Z,-1.26
2019-02-19T23:39:43.225Z,-1.21
2019-02-19T23:41:34.662Z,-1.34
2019-02-19T23:43:34.157Z,-1.31
2019-02-19T23:45:34.477Z,-1.48
2019-02-19T23:47:34.470Z,-1.41
2019-02-19T23:49:34.180Z,-1.33
2019-02-19T23:51:34.288Z,-1.33
2019-02-19T23:53:34.247Z,-1.38
2019-02-19T23:55:34.244Z,-1.47
2019-02-19T23:57:34.124Z,-1.43
2019-02-19T23:59:34.395Z,-1.57
